sensor_id;sensor_type;location;lat;lon;timestamp;temperature;humidity
7317;DHT22;3699;51.462;6.696;2022-12-22T00:01:52;9.90;99.90
7317;DHT22;3699;51.462;6.696;2022-12-22T00:04:39;9.90;99.90
7317;DHT22;3699;51.462;6.696;2022-12-22T00:07:24;9.90;99.90
7317;DHT22;3699;51.462;6.696;2022-12-22T00:10:09;9.90;99.90
7317;DHT22;3699;51.462;6.696;2022-12-22T00:12:53;9.90;99.90
7317;DHT22;3699;51.462;6.696;2022-12-22T00:15:39;9.90;99.90
7317;DHT22;3699;51.462;6.696;2022-12-22T00:18:23;9.90;99.90
7317;DHT22;3699;51.462;6.696;2022-12-22T00:21:09;9.90;99.90
7317;DHT22;3699;51.462;6.696;2022-12-22T00:23:54;9.90;99.90
7317;DHT22;3699;51.462;6.696;2022-12-22T00:26:38;10.00;99.90
7317;DHT22;3699;51.462;6.696;2022-12-22T00:29:32;10.00;99.90
7317;DHT22;3699;51.462;6.696;2022-12-22T00:32:20;9.90;99.90
7317;DHT22;3699;51.462;6.696;2022-12-22T00:35:11;10.00;99.90
7317;DHT22;3699;51.462;6.696;2022-12-22T00:37:56;10.00;99.90
7317;DHT22;3699;51.462;6.696;2022-12-22T00:40:40;10.00;99.90
7317;DHT22;3699;51.462;6.696;2022-12-22T00:43:24;9.90;99.90
7317;DHT22;3699;51.462;6.696;2022-12-22T00:46:10;10.00;99.90
7317;DHT22;3699;51.462;6.696;2022-12-22T00:48:57;10.00;99.90
7317;DHT22;3699;51.462;6.696;2022-12-22T00:51:42;10.00;99.90
7317;DHT22;3699;51.462;6.696;2022-12-22T00:54:26;10.00;99.90
7317;DHT22;3699;51.462;6.696;2022-12-22T00:57:15;10.00;99.90
7317;DHT22;3699;51.462;6.696;2022-12-22T00:59:59;10.00;99.90
7317;DHT22;3699;51.462;6.696;2022-12-22T01:02:44;10.00;99.90
7317;DHT22;3699;51.462;6.696;2022-12-22T01:05:30;10.00;99.90
7317;DHT22;3699;51.462;6.696;2022-12-22T01:08:14;10.00;99.90
7317;DHT22;3699;51.462;6.696;2022-12-22T01:10:59;10.00;99.90
7317;DHT22;3699;51.462;6.696;2022-12-22T01:13:43;10.00;99.90
7317;DHT22;3699;51.462;6.696;2022-12-22T01:16:27;9.80;99.90
7317;DHT22;3699;51.462;6.696;2022-12-22T01:19:11;10.00;99.90
7317;DHT22;3699;51.462;6.696;2022-12-22T01:21:57;10.00;99.90
7317;DHT22;3699;51.462;6.696;2022-12-22T01:24:44;10.00;99.90
7317;DHT22;3699;51.462;6.696;2022-12-22T01:27:29;10.00;99.90
7317;DHT22;3699;51.462;6.696;2022-12-22T01:30:13;10.00;99.90
7317;DHT22;3699;51.462;6.696;2022-12-22T01:32:57;10.00;99.90
7317;DHT22;3699;51.462;6.696;2022-12-22T01:35:41;10.00;99.90
7317;DHT22;3699;51.462;6.696;2022-12-22T01:38:27;10.00;99.90
7317;DHT22;3699;51.462;6.696;2022-12-22T01:41:15;9.90;99.90
7317;DHT22;3699;51.462;6.696;2022-12-22T01:44:01;10.00;99.90
7317;DHT22;3699;51.462;6.696;2022-12-22T01:46:46;10.00;99.90
7317;DHT22;3699;51.462;6.696;2022-12-22T01:49:33;10.00;99.90
7317;DHT22;3699;51.462;6.696;2022-12-22T01:52:21;10.00;99.90
7317;DHT22;3699;51.462;6.696;2022-12-22T01:55:11;10.00;99.90
7317;DHT22;3699;51.462;6.696;2022-12-22T01:57:56;10.10;99.90
7317;DHT22;3699;51.462;6.696;2022-12-22T02:00:41;10.00;99.90
7317;DHT22;3699;51.462;6.696;2022-12-22T02:03:26;10.00;99.90
7317;DHT22;3699;51.462;6.696;2022-12-22T02:06:15;10.10;99.90
7317;DHT22;3699;51.462;6.696;2022-12-22T02:09:16;10.10;99.90
7317;DHT22;3699;51.462;6.696;2022-12-22T02:12:10;9.80;99.90
7317;DHT22;3699;51.462;6.696;2022-12-22T02:15:03;10.10;99.90
7317;DHT22;3699;51.462;6.696;2022-12-22T02:17:55;10.10;99.90
7317;DHT22;3699;51.462;6.696;2022-12-22T02:20:47;10.10;99.90
7317;DHT22;3699;51.462;6.696;2022-12-22T02:23:55;10.00;99.90
7317;DHT22;3699;51.462;6.696;2022-12-22T02:26:49;10.10;99.90
7317;DHT22;3699;51.462;6.696;2022-12-22T02:29:36;10.10;99.90
7317;DHT22;3699;51.462;6.696;2022-12-22T02:32:22;10.10;99.90
7317;DHT22;3699;51.462;6.696;2022-12-22T02:35:10;10.10;99.90
7317;DHT22;3699;51.462;6.696;2022-12-22T02:37:59;10.10;99.90
7317;DHT22;3699;51.462;6.696;2022-12-22T02:40:51;10.10;99.90
7317;DHT22;3699;51.462;6.696;2022-12-22T02:44:02;10.10;99.90
7317;DHT22;3699;51.462;6.696;2022-12-22T02:46:54;10.10;99.90
7317;DHT22;3699;51.462;6.696;2022-12-22T02:49:49;10.20;99.90
7317;DHT22;3699;51.462;6.696;2022-12-22T02:52:36;10.20;99.90
7317;DHT22;3699;51.462;6.696;2022-12-22T02:55:21;10.20;99.90
7317;DHT22;3699;51.462;6.696;2022-12-22T02:58:06;10.40;99.90
7317;DHT22;3699;51.462;6.696;2022-12-22T03:00:52;10.10;99.90
7317;DHT22;3699;51.462;6.696;2022-12-22T03:03:36;10.20;99.90
7317;DHT22;3699;51.462;6.696;2022-12-22T03:06:20;10.20;99.90
7317;DHT22;3699;51.462;6.696;2022-12-22T03:09:04;10.30;99.90
7317;DHT22;3699;51.462;6.696;2022-12-22T03:11:49;10.30;99.90
7317;DHT22;3699;51.462;6.696;2022-12-22T03:14:33;10.30;99.90
7317;DHT22;3699;51.462;6.696;2022-12-22T03:17:18;10.30;99.90
7317;DHT22;3699;51.462;6.696;2022-12-22T03:20:03;10.30;99.90
7317;DHT22;3699;51.462;6.696;2022-12-22T03:22:47;10.30;99.90
7317;DHT22;3699;51.462;6.696;2022-12-22T03:25:32;10.30;99.90
7317;DHT22;3699;51.462;6.696;2022-12-22T03:28:19;10.30;99.90
7317;DHT22;3699;51.462;6.696;2022-12-22T03:30:52;10.30;99.90
7317;DHT22;3699;51.462;6.696;2022-12-22T03:33:20;10.30;99.90
7317;DHT22;3699;51.462;6.696;2022-12-22T03:35:47;10.40;99.90
7317;DHT22;3699;51.462;6.696;2022-12-22T03:38:14;10.30;99.90
7317;DHT22;3699;51.462;6.696;2022-12-22T03:40:40;10.40;99.90
7317;DHT22;3699;51.462;6.696;2022-12-22T03:43:09;10.40;99.90
7317;DHT22;3699;51.462;6.696;2022-12-22T03:45:54;10.40;99.90
7317;DHT22;3699;51.462;6.696;2022-12-22T03:48:51;10.40;99.90
7317;DHT22;3699;51.462;6.696;2022-12-22T03:51:38;10.40;99.90
7317;DHT22;3699;51.462;6.696;2022-12-22T03:54:05;10.40;99.90
7317;DHT22;3699;51.462;6.696;2022-12-22T03:56:32;10.40;99.90
7317;DHT22;3699;51.462;6.696;2022-12-22T03:58:59;10.40;99.90
7317;DHT22;3699;51.462;6.696;2022-12-22T04:01:26;10.40;99.90
7317;DHT22;3699;51.462;6.696;2022-12-22T04:03:54;10.40;99.90
7317;DHT22;3699;51.462;6.696;2022-12-22T04:06:21;10.40;99.90
7317;DHT22;3699;51.462;6.696;2022-12-22T04:08:48;10.50;99.90
7317;DHT22;3699;51.462;6.696;2022-12-22T04:11:15;10.50;99.90
7317;DHT22;3699;51.462;6.696;2022-12-22T04:14:00;10.50;99.90
7317;DHT22;3699;51.462;6.696;2022-12-22T04:16:27;10.50;99.90
7317;DHT22;3699;51.462;6.696;2022-12-22T04:18:56;10.50;99.90
7317;DHT22;3699;51.462;6.696;2022-12-22T04:21:23;10.50;99.90
7317;DHT22;3699;51.462;6.696;2022-12-22T04:23:50;10.50;99.90
7317;DHT22;3699;51.462;6.696;2022-12-22T04:26:17;10.50;99.90
7317;DHT22;3699;51.462;6.696;2022-12-22T04:28:44;10.50;99.90
7317;DHT22;3699;51.462;6.696;2022-12-22T04:31:11;10.50;99.90
7317;DHT22;3699;51.462;6.696;2022-12-22T04:33:38;10.50;99.90
7317;DHT22;3699;51.462;6.696;2022-12-22T04:36:07;10.50;99.90
7317;DHT22;3699;51.462;6.696;2022-12-22T04:38:35;10.50;99.90
7317;DHT22;3699;51.462;6.696;2022-12-22T04:41:02;10.50;99.90
7317;DHT22;3699;51.462;6.696;2022-12-22T04:43:28;10.40;99.90
7317;DHT22;3699;51.462;6.696;2022-12-22T04:45:56;10.50;99.90
7317;DHT22;3699;51.462;6.696;2022-12-22T04:48:23;10.50;99.90
7317;DHT22;3699;51.462;6.696;2022-12-22T04:50:50;10.50;99.90
7317;DHT22;3699;51.462;6.696;2022-12-22T04:53:19;10.50;99.90
7317;DHT22;3699;51.462;6.696;2022-12-22T04:55:46;10.50;99.90
7317;DHT22;3699;51.462;6.696;2022-12-22T04:58:12;10.60;99.90
7317;DHT22;3699;51.462;6.696;2022-12-22T05:00:39;10.50;99.90
7317;DHT22;3699;51.462;6.696;2022-12-22T05:03:06;10.50;99.90
7317;DHT22;3699;51.462;6.696;2022-12-22T05:05:33;10.50;99.90
7317;DHT22;3699;51.462;6.696;2022-12-22T05:08:00;10.50;99.90
7317;DHT22;3699;51.462;6.696;2022-12-22T05:10:29;10.50;99.90
7317;DHT22;3699;51.462;6.696;2022-12-22T05:12:56;10.50;99.90
7317;DHT22;3699;51.462;6.696;2022-12-22T05:15:25;10.50;99.90
7317;DHT22;3699;51.462;6.696;2022-12-22T05:17:52;10.50;99.90
7317;DHT22;3699;51.462;6.696;2022-12-22T05:20:19;10.50;99.90
7317;DHT22;3699;51.462;6.696;2022-12-22T05:22:46;10.50;99.90
7317;DHT22;3699;51.462;6.696;2022-12-22T05:25:13;10.50;99.90
7317;DHT22;3699;51.462;6.696;2022-12-22T05:27:42;10.50;99.90
7317;DHT22;3699;51.462;6.696;2022-12-22T05:30:10;10.50;99.90
7317;DHT22;3699;51.462;6.696;2022-12-22T05:32:37;10.50;99.90
7317;DHT22;3699;51.462;6.696;2022-12-22T05:35:05;10.50;99.90
7317;DHT22;3699;51.462;6.696;2022-12-22T05:37:32;10.50;99.90
7317;DHT22;3699;51.462;6.696;2022-12-22T05:39:59;10.50;99.90
7317;DHT22;3699;51.462;6.696;2022-12-22T05:42:26;10.60;99.90
7317;DHT22;3699;51.462;6.696;2022-12-22T05:45:06;10.60;99.90
7317;DHT22;3699;51.462;6.696;2022-12-22T05:47:33;10.60;99.90
7317;DHT22;3699;51.462;6.696;2022-12-22T05:50:00;10.70;99.90
7317;DHT22;3699;51.462;6.696;2022-12-22T05:52:27;10.60;99.90
7317;DHT22;3699;51.462;6.696;2022-12-22T05:54:54;10.60;99.90
7317;DHT22;3699;51.462;6.696;2022-12-22T05:57:21;10.60;99.90
7317;DHT22;3699;51.462;6.696;2022-12-22T05:59:48;10.60;99.90
7317;DHT22;3699;51.462;6.696;2022-12-22T06:02:16;10.60;99.90
7317;DHT22;3699;51.462;6.696;2022-12-22T06:04:43;10.60;99.90
7317;DHT22;3699;51.462;6.696;2022-12-22T06:07:09;10.60;99.90
7317;DHT22;3699;51.462;6.696;2022-12-22T06:09:37;10.60;99.90
7317;DHT22;3699;51.462;6.696;2022-12-22T06:12:04;10.10;99.90
7317;DHT22;3699;51.462;6.696;2022-12-22T06:14:31;10.60;99.90
7317;DHT22;3699;51.462;6.696;2022-12-22T06:16:58;10.60;99.90
7317;DHT22;3699;51.462;6.696;2022-12-22T06:19:26;10.60;99.90
7317;DHT22;3699;51.462;6.696;2022-12-22T06:21:53;10.60;99.90
7317;DHT22;3699;51.462;6.696;2022-12-22T06:24:19;10.60;99.90
7317;DHT22;3699;51.462;6.696;2022-12-22T06:26:46;10.50;99.90
7317;DHT22;3699;51.462;6.696;2022-12-22T06:29:13;10.50;99.90
7317;DHT22;3699;51.462;6.696;2022-12-22T06:31:40;10.50;99.90
7317;DHT22;3699;51.462;6.696;2022-12-22T06:34:07;10.50;99.90
7317;DHT22;3699;51.462;6.696;2022-12-22T06:36:35;10.50;99.90
7317;DHT22;3699;51.462;6.696;2022-12-22T06:39:03;10.50;99.90
7317;DHT22;3699;51.462;6.696;2022-12-22T06:41:30;10.50;99.90
7317;DHT22;3699;51.462;6.696;2022-12-22T06:44:14;10.50;99.90
7317;DHT22;3699;51.462;6.696;2022-12-22T06:46:40;10.40;99.90
7317;DHT22;3699;51.462;6.696;2022-12-22T06:49:07;10.50;99.90
7317;DHT22;3699;51.462;6.696;2022-12-22T06:51:35;10.40;99.90
7317;DHT22;3699;51.462;6.696;2022-12-22T06:54:02;10.40;99.90
7317;DHT22;3699;51.462;6.696;2022-12-22T06:56:29;10.50;99.90
7317;DHT22;3699;51.462;6.696;2022-12-22T06:58:56;10.40;99.90
7317;DHT22;3699;51.462;6.696;2022-12-22T07:01:23;10.40;99.90
7317;DHT22;3699;51.462;6.696;2022-12-22T07:03:50;10.30;99.90
7317;DHT22;3699;51.462;6.696;2022-12-22T07:06:17;10.30;99.90
7317;DHT22;3699;51.462;6.696;2022-12-22T07:08:45;10.30;99.90
7317;DHT22;3699;51.462;6.696;2022-12-22T07:11:12;10.30;99.90
7317;DHT22;3699;51.462;6.696;2022-12-22T07:13:39;10.30;99.90
7317;DHT22;3699;51.462;6.696;2022-12-22T07:16:07;10.30;99.90
7317;DHT22;3699;51.462;6.696;2022-12-22T07:18:36;10.30;99.90
7317;DHT22;3699;51.462;6.696;2022-12-22T07:21:05;10.30;99.90
7317;DHT22;3699;51.462;6.696;2022-12-22T07:23:32;10.30;99.90
7317;DHT22;3699;51.462;6.696;2022-12-22T07:26:01;10.30;99.90
7317;DHT22;3699;51.462;6.696;2022-12-22T07:28:28;10.30;99.90
7317;DHT22;3699;51.462;6.696;2022-12-22T07:30:55;10.40;99.90
7317;DHT22;3699;51.462;6.696;2022-12-22T07:33:21;10.30;99.90
7317;DHT22;3699;51.462;6.696;2022-12-22T07:35:58;10.40;99.90
7317;DHT22;3699;51.462;6.696;2022-12-22T07:38:25;10.40;99.90
7317;DHT22;3699;51.462;6.696;2022-12-22T07:40:56;10.40;99.90
7317;DHT22;3699;51.462;6.696;2022-12-22T07:43:24;10.40;99.90
7317;DHT22;3699;51.462;6.696;2022-12-22T07:45:50;10.40;99.90
7317;DHT22;3699;51.462;6.696;2022-12-22T07:48:16;10.40;99.90
7317;DHT22;3699;51.462;6.696;2022-12-22T07:51:02;10.50;99.90
7317;DHT22;3699;51.462;6.696;2022-12-22T07:53:30;10.50;99.90
7317;DHT22;3699;51.462;6.696;2022-12-22T07:56:01;10.50;99.90
7317;DHT22;3699;51.462;6.696;2022-12-22T07:58:29;10.50;99.90
7317;DHT22;3699;51.462;6.696;2022-12-22T08:00:57;10.50;99.90
7317;DHT22;3699;51.462;6.696;2022-12-22T08:03:24;10.50;99.90
7317;DHT22;3699;51.462;6.696;2022-12-22T08:05:50;10.60;99.90
7317;DHT22;3699;51.462;6.696;2022-12-22T08:08:17;10.60;99.90
7317;DHT22;3699;51.462;6.696;2022-12-22T08:10:44;10.60;99.90
7317;DHT22;3699;51.462;6.696;2022-12-22T08:13:10;10.60;99.90
7317;DHT22;3699;51.462;6.696;2022-12-22T08:15:39;10.60;99.90
7317;DHT22;3699;51.462;6.696;2022-12-22T08:18:05;10.60;99.90
7317;DHT22;3699;51.462;6.696;2022-12-22T08:20:32;10.70;99.90
7317;DHT22;3699;51.462;6.696;2022-12-22T08:22:59;10.70;99.90
7317;DHT22;3699;51.462;6.696;2022-12-22T08:25:25;10.70;99.90
7317;DHT22;3699;51.462;6.696;2022-12-22T08:27:54;10.70;99.90
7317;DHT22;3699;51.462;6.696;2022-12-22T08:30:21;10.70;99.90
7317;DHT22;3699;51.462;6.696;2022-12-22T08:32:50;10.70;99.90
7317;DHT22;3699;51.462;6.696;2022-12-22T08:35:18;10.70;99.90
7317;DHT22;3699;51.462;6.696;2022-12-22T08:37:45;10.70;99.90
7317;DHT22;3699;51.462;6.696;2022-12-22T08:40:15;10.80;99.90
7317;DHT22;3699;51.462;6.696;2022-12-22T08:42:43;10.80;99.90
7317;DHT22;3699;51.462;6.696;2022-12-22T08:45:10;10.80;99.90
7317;DHT22;3699;51.462;6.696;2022-12-22T08:47:37;10.80;99.90
7317;DHT22;3699;51.462;6.696;2022-12-22T08:50:07;10.80;99.90
7317;DHT22;3699;51.462;6.696;2022-12-22T08:52:33;10.80;99.90
7317;DHT22;3699;51.462;6.696;2022-12-22T08:55:00;10.80;99.90
7317;DHT22;3699;51.462;6.696;2022-12-22T08:57:27;10.90;99.90
7317;DHT22;3699;51.462;6.696;2022-12-22T08:59:54;10.90;99.90
7317;DHT22;3699;51.462;6.696;2022-12-22T09:02:20;10.90;99.90
7317;DHT22;3699;51.462;6.696;2022-12-22T09:04:47;11.00;99.90
7317;DHT22;3699;51.462;6.696;2022-12-22T09:07:15;11.00;99.90
7317;DHT22;3699;51.462;6.696;2022-12-22T09:09:42;11.00;99.90
7317;DHT22;3699;51.462;6.696;2022-12-22T09:12:11;11.10;99.90
7317;DHT22;3699;51.462;6.696;2022-12-22T09:14:37;11.10;99.90
7317;DHT22;3699;51.462;6.696;2022-12-22T09:17:04;11.10;99.90
7317;DHT22;3699;51.462;6.696;2022-12-22T09:19:31;11.20;99.90
7317;DHT22;3699;51.462;6.696;2022-12-22T09:21:58;11.20;99.90
7317;DHT22;3699;51.462;6.696;2022-12-22T09:24:26;11.20;99.90
7317;DHT22;3699;51.462;6.696;2022-12-22T09:26:52;11.20;99.90
7317;DHT22;3699;51.462;6.696;2022-12-22T09:29:19;11.20;99.90
7317;DHT22;3699;51.462;6.696;2022-12-22T09:31:46;11.20;99.90
7317;DHT22;3699;51.462;6.696;2022-12-22T09:34:13;11.20;99.90
7317;DHT22;3699;51.462;6.696;2022-12-22T09:36:40;11.20;99.90
7317;DHT22;3699;51.462;6.696;2022-12-22T09:39:08;11.20;99.90
7317;DHT22;3699;51.462;6.696;2022-12-22T09:41:42;11.20;99.90
7317;DHT22;3699;51.462;6.696;2022-12-22T09:44:13;11.20;99.90
7317;DHT22;3699;51.462;6.696;2022-12-22T09:46:41;11.20;99.90
7317;DHT22;3699;51.462;6.696;2022-12-22T09:49:11;11.10;99.90
7317;DHT22;3699;51.462;6.696;2022-12-22T09:51:42;11.20;99.90
7317;DHT22;3699;51.462;6.696;2022-12-22T09:54:11;11.20;99.90
7317;DHT22;3699;51.462;6.696;2022-12-22T09:56:39;11.20;99.90
7317;DHT22;3699;51.462;6.696;2022-12-22T09:59:09;11.20;99.90
7317;DHT22;3699;51.462;6.696;2022-12-22T10:01:46;11.10;99.90
7317;DHT22;3699;51.462;6.696;2022-12-22T10:04:21;11.10;99.90
7317;DHT22;3699;51.462;6.696;2022-12-22T10:06:55;11.10;99.90
7317;DHT22;3699;51.462;6.696;2022-12-22T10:09:28;11.10;99.90
7317;DHT22;3699;51.462;6.696;2022-12-22T10:11:58;11.00;99.90
7317;DHT22;3699;51.462;6.696;2022-12-22T10:14:32;11.00;99.90
7317;DHT22;3699;51.462;6.696;2022-12-22T10:17:14;11.00;99.90
7317;DHT22;3699;51.462;6.696;2022-12-22T10:19:41;11.00;99.90
7317;DHT22;3699;51.462;6.696;2022-12-22T10:22:27;11.00;99.90
7317;DHT22;3699;51.462;6.696;2022-12-22T10:24:55;11.00;99.90
7317;DHT22;3699;51.462;6.696;2022-12-22T10:27:27;11.10;99.90
7317;DHT22;3699;51.462;6.696;2022-12-22T10:30:15;11.10;99.90
7317;DHT22;3699;51.462;6.696;2022-12-22T10:32:43;11.10;99.90
7317;DHT22;3699;51.462;6.696;2022-12-22T10:35:10;11.10;99.90
7317;DHT22;3699;51.462;6.696;2022-12-22T10:37:39;11.10;99.90
7317;DHT22;3699;51.462;6.696;2022-12-22T10:40:14;11.10;99.90
7317;DHT22;3699;51.462;6.696;2022-12-22T10:42:49;11.20;99.90
7317;DHT22;3699;51.462;6.696;2022-12-22T10:45:18;11.20;99.90
7317;DHT22;3699;51.462;6.696;2022-12-22T10:47:48;11.30;99.90
7317;DHT22;3699;51.462;6.696;2022-12-22T10:50:16;11.30;99.90
7317;DHT22;3699;51.462;6.696;2022-12-22T10:52:50;11.30;99.90
7317;DHT22;3699;51.462;6.696;2022-12-22T10:55:20;11.30;99.90
7317;DHT22;3699;51.462;6.696;2022-12-22T10:57:49;11.40;99.90
7317;DHT22;3699;51.462;6.696;2022-12-22T11:00:25;11.50;99.90
7317;DHT22;3699;51.462;6.696;2022-12-22T11:02:53;11.50;99.90
7317;DHT22;3699;51.462;6.696;2022-12-22T11:05:20;11.50;99.90
7317;DHT22;3699;51.462;6.696;2022-12-22T11:07:47;11.50;99.90
7317;DHT22;3699;51.462;6.696;2022-12-22T11:10:19;11.50;99.90
7317;DHT22;3699;51.462;6.696;2022-12-22T11:13:09;11.40;99.90
7317;DHT22;3699;51.462;6.696;2022-12-22T11:15:44;11.60;99.90
7317;DHT22;3699;51.462;6.696;2022-12-22T11:18:27;11.60;99.90
7317;DHT22;3699;51.462;6.696;2022-12-22T11:21:00;11.70;99.90
7317;DHT22;3699;51.462;6.696;2022-12-22T11:23:32;11.70;99.90
7317;DHT22;3699;51.462;6.696;2022-12-22T11:26:08;11.70;99.90
7317;DHT22;3699;51.462;6.696;2022-12-22T11:28:56;11.70;99.90
7317;DHT22;3699;51.462;6.696;2022-12-22T11:31:55;11.70;99.90
7317;DHT22;3699;51.462;6.696;2022-12-22T11:34:40;11.70;99.90
7317;DHT22;3699;51.462;6.696;2022-12-22T11:37:26;11.70;99.90
7317;DHT22;3699;51.462;6.696;2022-12-22T11:39:59;11.60;99.90
7317;DHT22;3699;51.462;6.696;2022-12-22T11:42:40;11.50;99.90
7317;DHT22;3699;51.462;6.696;2022-12-22T11:45:30;11.50;99.90
7317;DHT22;3699;51.462;6.696;2022-12-22T11:48:02;11.50;99.90
7317;DHT22;3699;51.462;6.696;2022-12-22T11:50:38;11.50;99.90
7317;DHT22;3699;51.462;6.696;2022-12-22T11:53:23;11.50;99.90
7317;DHT22;3699;51.462;6.696;2022-12-22T11:56:01;11.40;99.90
7317;DHT22;3699;51.462;6.696;2022-12-22T11:58:51;11.30;99.90
7317;DHT22;3699;51.462;6.696;2022-12-22T12:01:36;11.30;99.90
7317;DHT22;3699;51.462;6.696;2022-12-22T12:07:23;11.30;99.90
7317;DHT22;3699;51.462;6.696;2022-12-22T12:09:57;11.60;99.90
7317;DHT22;3699;51.462;6.696;2022-12-22T12:12:36;11.40;99.90
7317;DHT22;3699;51.462;6.696;2022-12-22T12:15:16;11.40;99.90
7317;DHT22;3699;51.462;6.696;2022-12-22T12:20:47;11.60;99.90
7317;DHT22;3699;51.462;6.696;2022-12-22T12:23:26;11.60;99.90
7317;DHT22;3699;51.462;6.696;2022-12-22T12:26:01;11.60;99.90
7317;DHT22;3699;51.462;6.696;2022-12-22T12:28:41;11.70;99.90
7317;DHT22;3699;51.462;6.696;2022-12-22T12:31:16;11.60;99.90
7317;DHT22;3699;51.462;6.696;2022-12-22T12:33:47;11.60;99.90
7317;DHT22;3699;51.462;6.696;2022-12-22T12:36:19;11.60;99.90
7317;DHT22;3699;51.462;6.696;2022-12-22T12:38:53;11.70;99.90
7317;DHT22;3699;51.462;6.696;2022-12-22T12:41:26;11.70;99.90
7317;DHT22;3699;51.462;6.696;2022-12-22T12:43:57;11.60;99.90
7317;DHT22;3699;51.462;6.696;2022-12-22T12:46:44;11.60;99.90
7317;DHT22;3699;51.462;6.696;2022-12-22T12:49:53;11.60;99.90
7317;DHT22;3699;51.462;6.696;2022-12-22T12:55:25;11.50;99.90
7317;DHT22;3699;51.462;6.696;2022-12-22T12:57:56;11.50;99.90
7317;DHT22;3699;51.462;6.696;2022-12-22T13:00:42;11.50;99.90
7317;DHT22;3699;51.462;6.696;2022-12-22T13:03:12;11.50;99.90
7317;DHT22;3699;51.462;6.696;2022-12-22T13:06:02;11.50;99.90
7317;DHT22;3699;51.462;6.696;2022-12-22T13:08:30;11.50;99.90
7317;DHT22;3699;51.462;6.696;2022-12-22T13:11:19;11.60;99.90
7317;DHT22;3699;51.462;6.696;2022-12-22T13:13:55;11.50;99.90
7317;DHT22;3699;51.462;6.696;2022-12-22T13:16:28;11.60;99.90
7317;DHT22;3699;51.462;6.696;2022-12-22T13:18:56;11.60;99.90
7317;DHT22;3699;51.462;6.696;2022-12-22T13:21:28;11.50;99.90
7317;DHT22;3699;51.462;6.696;2022-12-22T13:24:03;11.50;99.90
7317;DHT22;3699;51.462;6.696;2022-12-22T13:26:32;11.50;99.90
7317;DHT22;3699;51.462;6.696;2022-12-22T13:29:06;11.60;99.90
7317;DHT22;3699;51.462;6.696;2022-12-22T13:31:39;11.50;99.90
7317;DHT22;3699;51.462;6.696;2022-12-22T13:34:28;11.50;99.90
7317;DHT22;3699;51.462;6.696;2022-12-22T13:36:58;11.40;99.90
7317;DHT22;3699;51.462;6.696;2022-12-22T13:39:27;11.30;99.90
7317;DHT22;3699;51.462;6.696;2022-12-22T13:41:54;11.30;99.90
7317;DHT22;3699;51.462;6.696;2022-12-22T13:44:27;11.20;99.90
7317;DHT22;3699;51.462;6.696;2022-12-22T13:47:00;11.20;99.90
7317;DHT22;3699;51.462;6.696;2022-12-22T13:49:27;11.10;99.90
7317;DHT22;3699;51.462;6.696;2022-12-22T13:51:55;11.00;99.90
7317;DHT22;3699;51.462;6.696;2022-12-22T13:54:26;10.90;99.90
7317;DHT22;3699;51.462;6.696;2022-12-22T13:56:55;10.80;99.90
7317;DHT22;3699;51.462;6.696;2022-12-22T13:59:27;10.70;99.90
7317;DHT22;3699;51.462;6.696;2022-12-22T14:01:57;10.70;99.90
7317;DHT22;3699;51.462;6.696;2022-12-22T14:04:25;10.70;99.90
7317;DHT22;3699;51.462;6.696;2022-12-22T14:06:52;10.70;99.90
7317;DHT22;3699;51.462;6.696;2022-12-22T14:09:23;10.60;99.90
7317;DHT22;3699;51.462;6.696;2022-12-22T14:11:53;10.60;99.90
7317;DHT22;3699;51.462;6.696;2022-12-22T14:14:24;10.80;99.90
7317;DHT22;3699;51.462;6.696;2022-12-22T14:16:52;10.70;99.90
7317;DHT22;3699;51.462;6.696;2022-12-22T14:19:20;10.70;99.90
7317;DHT22;3699;51.462;6.696;2022-12-22T14:21:53;10.70;99.90
7317;DHT22;3699;51.462;6.696;2022-12-22T14:24:25;10.70;99.90
7317;DHT22;3699;51.462;6.696;2022-12-22T14:26:53;10.70;99.90
7317;DHT22;3699;51.462;6.696;2022-12-22T14:29:24;10.70;99.90
7317;DHT22;3699;51.462;6.696;2022-12-22T14:31:56;10.70;99.90
7317;DHT22;3699;51.462;6.696;2022-12-22T14:34:24;10.60;99.90
7317;DHT22;3699;51.462;6.696;2022-12-22T14:36:51;10.70;99.90
7317;DHT22;3699;51.462;6.696;2022-12-22T14:39:22;10.60;99.90
7317;DHT22;3699;51.462;6.696;2022-12-22T14:41:52;10.50;99.90
7317;DHT22;3699;51.462;6.696;2022-12-22T14:44:22;10.50;99.90
7317;DHT22;3699;51.462;6.696;2022-12-22T14:47:13;10.50;99.90
7317;DHT22;3699;51.462;6.696;2022-12-22T14:49:45;10.40;99.90
7317;DHT22;3699;51.462;6.696;2022-12-22T14:52:20;10.40;99.90
7317;DHT22;3699;51.462;6.696;2022-12-22T14:54:48;10.40;99.90
7317;DHT22;3699;51.462;6.696;2022-12-22T14:57:26;10.40;99.90
7317;DHT22;3699;51.462;6.696;2022-12-22T14:59:59;10.30;99.90
7317;DHT22;3699;51.462;6.696;2022-12-22T15:02:29;10.30;99.90
7317;DHT22;3699;51.462;6.696;2022-12-22T15:05:13;10.30;99.90
7317;DHT22;3699;51.462;6.696;2022-12-22T15:07:46;10.30;99.90
7317;DHT22;3699;51.462;6.696;2022-12-22T15:10:13;10.30;99.90
7317;DHT22;3699;51.462;6.696;2022-12-22T15:12:41;10.30;99.90
7317;DHT22;3699;51.462;6.696;2022-12-22T15:15:16;10.30;99.90
7317;DHT22;3699;51.462;6.696;2022-12-22T15:17:45;10.30;99.90
7317;DHT22;3699;51.462;6.696;2022-12-22T15:20:16;10.30;99.90
7317;DHT22;3699;51.462;6.696;2022-12-22T15:22:44;10.30;99.90
7317;DHT22;3699;51.462;6.696;2022-12-22T15:25:13;10.20;99.90
7317;DHT22;3699;51.462;6.696;2022-12-22T15:27:42;10.20;99.90
7317;DHT22;3699;51.462;6.696;2022-12-22T15:30:10;10.30;99.90
7317;DHT22;3699;51.462;6.696;2022-12-22T15:32:38;10.20;99.90
7317;DHT22;3699;51.462;6.696;2022-12-22T15:35:16;10.20;99.90
7317;DHT22;3699;51.462;6.696;2022-12-22T15:37:43;10.20;99.90
7317;DHT22;3699;51.462;6.696;2022-12-22T15:40:15;10.20;99.90
7317;DHT22;3699;51.462;6.696;2022-12-22T15:42:43;10.30;99.90
7317;DHT22;3699;51.462;6.696;2022-12-22T15:45:11;10.20;99.90
7317;DHT22;3699;51.462;6.696;2022-12-22T15:47:38;10.20;99.90
7317;DHT22;3699;51.462;6.696;2022-12-22T15:50:08;10.20;99.90
7317;DHT22;3699;51.462;6.696;2022-12-22T15:52:36;10.20;99.90
7317;DHT22;3699;51.462;6.696;2022-12-22T15:55:03;10.20;99.90
7317;DHT22;3699;51.462;6.696;2022-12-22T15:57:30;10.20;99.90
7317;DHT22;3699;51.462;6.696;2022-12-22T15:59:58;10.20;99.90
7317;DHT22;3699;51.462;6.696;2022-12-22T16:02:25;10.10;99.90
7317;DHT22;3699;51.462;6.696;2022-12-22T16:04:52;10.10;99.90
7317;DHT22;3699;51.462;6.696;2022-12-22T16:07:18;10.10;99.90
7317;DHT22;3699;51.462;6.696;2022-12-22T16:09:46;10.10;99.90
7317;DHT22;3699;51.462;6.696;2022-12-22T16:12:14;10.10;99.90
7317;DHT22;3699;51.462;6.696;2022-12-22T16:14:43;10.20;99.90
7317;DHT22;3699;51.462;6.696;2022-12-22T16:17:16;10.10;99.90
7317;DHT22;3699;51.462;6.696;2022-12-22T16:19:43;10.10;99.90
7317;DHT22;3699;51.462;6.696;2022-12-22T16:22:11;10.10;99.90
7317;DHT22;3699;51.462;6.696;2022-12-22T16:24:40;10.10;99.90
7317;DHT22;3699;51.462;6.696;2022-12-22T16:27:09;10.00;99.90
7317;DHT22;3699;51.462;6.696;2022-12-22T16:29:36;10.10;99.90
7317;DHT22;3699;51.462;6.696;2022-12-22T16:32:15;10.00;99.90
7317;DHT22;3699;51.462;6.696;2022-12-22T16:34:42;10.00;99.90
7317;DHT22;3699;51.462;6.696;2022-12-22T16:37:09;9.90;99.90
7317;DHT22;3699;51.462;6.696;2022-12-22T16:39:36;9.90;99.90
7317;DHT22;3699;51.462;6.696;2022-12-22T16:42:03;9.90;99.90
7317;DHT22;3699;51.462;6.696;2022-12-22T16:44:29;9.90;99.90
7317;DHT22;3699;51.462;6.696;2022-12-22T16:46:56;9.90;99.90
7317;DHT22;3699;51.462;6.696;2022-12-22T16:49:24;9.90;99.90
7317;DHT22;3699;51.462;6.696;2022-12-22T16:51:52;9.90;99.90
7317;DHT22;3699;51.462;6.696;2022-12-22T16:54:19;9.90;99.90